sensor_id;sensor_type;location;lat;lon;timestamp;pressure;altitude;pressure_sealevel;temperature;humidity
64064;BME280;50314;50.618;10.642;2023-11-21T00:01:06;95994.03;;;16.37;29.25
64064;BME280;50314;50.618;10.642;2023-11-21T00:03:34;95997.53;;;16.37;28.92
64064;BME280;50314;50.618;10.642;2023-11-21T00:06:06;95998.53;;;16.36;29.46
64064;BME280;50314;50.618;10.642;2023-11-21T00:08:34;95998.53;;;16.36;29.31
64064;BME280;50314;50.618;10.642;2023-11-21T00:11:00;95996.88;;;16.35;29.28
64064;BME280;50314;50.618;10.642;2023-11-21T00:13:38;95996.19;;;16.33;28.88
64064;BME280;50314;50.618;10.642;2023-11-21T00:16:09;96003.16;;;16.34;29.18
64064;BME280;50314;50.618;10.642;2023-11-21T00:18:40;95997.03;;;16.34;29.12
64064;BME280;50314;50.618;10.642;2023-11-21T00:21:06;95999.88;;;16.32;29.21
64064;BME280;50314;50.618;10.642;2023-11-21T00:23:34;96001.69;;;16.32;29.20
64064;BME280;50314;50.618;10.642;2023-11-21T00:26:00;95999.03;;;16.32;29.24
64064;BME280;50314;50.618;10.642;2023-11-21T00:28:26;95995.69;;;16.30;29.02
64064;BME280;50314;50.618;10.642;2023-11-21T00:30:59;96002.16;;;16.27;29.18
64064;BME280;50314;50.618;10.642;2023-11-21T00:33:24;96001.00;;;16.30;29.00
64064;BME280;50314;50.618;10.642;2023-11-21T00:36:01;95996.72;;;16.29;29.10
64064;BME280;50314;50.618;10.642;2023-11-21T00:38:27;95999.38;;;16.29;29.15
64064;BME280;50314;50.618;10.642;2023-11-21T00:40:52;96003.00;;;16.28;29.29
64064;BME280;50314;50.618;10.642;2023-11-21T00:43:22;96003.84;;;16.28;29.03
64064;BME280;50314;50.618;10.642;2023-11-21T00:45:48;96005.84;;;16.26;29.07
64064;BME280;50314;50.618;10.642;2023-11-21T00:48:16;96010.31;;;16.26;29.21
64064;BME280;50314;50.618;10.642;2023-11-21T00:50:45;96011.16;;;16.26;28.97
64064;BME280;50314;50.618;10.642;2023-11-21T00:53:11;96013.13;;;16.24;29.22
64064;BME280;50314;50.618;10.642;2023-11-21T00:55:37;96008.81;;;16.23;29.07
64064;BME280;50314;50.618;10.642;2023-11-21T00:58:05;96007.16;;;16.22;29.29
64064;BME280;50314;50.618;10.642;2023-11-21T01:00:33;96012.47;;;16.22;29.17
64064;BME280;50314;50.618;10.642;2023-11-21T01:03:10;96014.63;;;16.18;29.24
64064;BME280;50314;50.618;10.642;2023-11-21T01:05:36;96018.78;;;16.21;29.21
64064;BME280;50314;50.618;10.642;2023-11-21T01:08:07;96015.47;;;16.19;29.32
64064;BME280;50314;50.618;10.642;2023-11-21T01:10:33;96013.47;;;16.21;28.98
64064;BME280;50314;50.618;10.642;2023-11-21T01:12:59;96012.47;;;16.22;29.25
64064;BME280;50314;50.618;10.642;2023-11-21T01:15:27;96011.81;;;16.20;29.06
64064;BME280;50314;50.618;10.642;2023-11-21T01:18:13;96021.78;;;16.18;29.15
64064;BME280;50314;50.618;10.642;2023-11-21T01:20:55;96023.75;;;16.16;29.25
64064;BME280;50314;50.618;10.642;2023-11-21T01:23:25;96019.78;;;16.20;29.21
64064;BME280;50314;50.618;10.642;2023-11-21T01:26:04;96020.59;;;16.20;28.96
64064;BME280;50314;50.618;10.642;2023-11-21T01:28:34;96018.13;;;16.19;29.03
64064;BME280;50314;50.618;10.642;2023-11-21T01:30:59;96012.81;;;16.19;28.99
64064;BME280;50314;50.618;10.642;2023-11-21T01:33:25;96018.13;;;16.19;28.99
64064;BME280;50314;50.618;10.642;2023-11-21T01:35:51;96020.78;;;16.19;28.93
64064;BME280;50314;50.618;10.642;2023-11-21T01:38:21;96017.44;;;16.17;29.08
64064;BME280;50314;50.618;10.642;2023-11-21T01:40:57;96017.44;;;16.17;28.98
64064;BME280;50314;50.618;10.642;2023-11-21T01:43:32;96020.28;;;16.15;28.86
64064;BME280;50314;50.618;10.642;2023-11-21T01:46:01;96025.59;;;16.15;29.02
64064;BME280;50314;50.618;10.642;2023-11-21T01:48:35;96031.34;;;16.11;29.02
64064;BME280;50314;50.618;10.642;2023-11-21T01:51:08;96024.09;;;16.13;29.16
64064;BME280;50314;50.618;10.642;2023-11-21T01:53:52;96032.34;;;16.10;28.99
64064;BME280;50314;50.618;10.642;2023-11-21T01:56:23;96033.72;;;16.14;29.03
64064;BME280;50314;50.618;10.642;2023-11-21T01:58:58;96034.91;;;16.11;29.14
64064;BME280;50314;50.618;10.642;2023-11-21T02:01:55;96030.84;;;16.07;29.16
64064;BME280;50314;50.618;10.642;2023-11-21T02:07:29;96038.16;;;16.05;29.30
64064;BME280;50314;50.618;10.642;2023-11-21T02:10:24;96040.97;;;16.04;29.32
64064;BME280;50314;50.618;10.642;2023-11-21T02:12:59;96041.31;;;16.09;29.23
64064;BME280;50314;50.618;10.642;2023-11-21T02:15:39;96042.97;;;16.10;29.19
64064;BME280;50314;50.618;10.642;2023-11-21T02:18:15;96037.66;;;16.10;29.11
64064;BME280;50314;50.618;10.642;2023-11-21T02:20:50;96037.00;;;16.08;29.19
64064;BME280;50314;50.618;10.642;2023-11-21T02:23:32;96038.50;;;16.10;29.29
64064;BME280;50314;50.618;10.642;2023-11-21T02:25:58;96043.81;;;16.10;28.98
64064;BME280;50314;50.618;10.642;2023-11-21T02:28:24;96040.22;;;16.11;29.33
64064;BME280;50314;50.618;10.642;2023-11-21T02:31:10;96037.66;;;16.10;29.07
64064;BME280;50314;50.618;10.642;2023-11-21T02:33:39;96034.31;;;16.00;29.15
64064;BME280;50314;50.618;10.642;2023-11-21T02:36:08;96049.94;;;16.03;29.34
64064;BME280;50314;50.618;10.642;2023-11-21T02:38:34;96049.78;;;16.04;29.32
64064;BME280;50314;50.618;10.642;2023-11-21T02:41:03;96053.28;;;16.05;29.22
64064;BME280;50314;50.618;10.642;2023-11-21T02:43:29;96041.97;;;16.03;29.08
64064;BME280;50314;50.618;10.642;2023-11-21T02:45:55;96043.81;;;16.02;28.89
64064;BME280;50314;50.618;10.642;2023-11-21T02:48:20;96040.47;;;16.00;29.16
64064;BME280;50314;50.618;10.642;2023-11-21T02:50:49;96047.47;;;16.01;28.99
64064;BME280;50314;50.618;10.642;2023-11-21T02:53:16;96038.81;;;15.99;29.25
64064;BME280;50314;50.618;10.642;2023-11-21T02:55:41;96036.16;;;15.99;29.33
64064;BME280;50314;50.618;10.642;2023-11-21T02:58:23;96037.63;;;15.93;29.36
64064;BME280;50314;50.618;10.642;2023-11-21T03:01:11;96031.66;;;16.00;29.07
64064;BME280;50314;50.618;10.642;2023-11-21T03:07:04;96028.88;;;16.01;29.13
64064;BME280;50314;50.618;10.642;2023-11-21T03:09:30;96032.34;;;16.02;29.00
64064;BME280;50314;50.618;10.642;2023-11-21T03:12:20;96034.31;;;16.00;28.98
64064;BME280;50314;50.618;10.642;2023-11-21T03:14:45;96030.66;;;16.01;28.82
64064;BME280;50314;50.618;10.642;2023-11-21T03:17:10;96032.50;;;16.00;28.92
64064;BME280;50314;50.618;10.642;2023-11-21T03:19:42;96033.00;;;15.95;29.24
64064;BME280;50314;50.618;10.642;2023-11-21T03:22:07;96035.34;;;15.98;29.08
64064;BME280;50314;50.618;10.642;2023-11-21T03:24:40;96035.34;;;15.98;29.12
64064;BME280;50314;50.618;10.642;2023-11-21T03:27:06;96046.09;;;15.97;29.05
64064;BME280;50314;50.618;10.642;2023-11-21T03:29:31;96042.78;;;15.95;29.10
64064;BME280;50314;50.618;10.642;2023-11-21T03:31:59;96042.94;;;15.93;29.05
64064;BME280;50314;50.618;10.642;2023-11-21T03:34:33;96041.28;;;15.92;29.18
64064;BME280;50314;50.618;10.642;2023-11-21T03:37:01;96043.75;;;15.94;28.98
64064;BME280;50314;50.618;10.642;2023-11-21T03:39:27;96043.75;;;15.94;29.03
64064;BME280;50314;50.618;10.642;2023-11-21T03:42:10;96054.38;;;15.94;29.10
64064;BME280;50314;50.618;10.642;2023-11-21T03:44:41;96052.75;;;15.93;28.93
64064;BME280;50314;50.618;10.642;2023-11-21T03:47:10;96060.06;;;15.91;29.30
64064;BME280;50314;50.618;10.642;2023-11-21T03:49:47;96055.56;;;15.91;28.93
64064;BME280;50314;50.618;10.642;2023-11-21T03:52:13;96057.53;;;15.89;29.38
64064;BME280;50314;50.618;10.642;2023-11-21T03:55:04;96050.06;;;15.85;29.40
64064;BME280;50314;50.618;10.642;2023-11-21T03:57:34;96053.25;;;15.88;29.04
64064;BME280;50314;50.618;10.642;2023-11-21T04:00:06;96054.75;;;15.91;29.14
64064;BME280;50314;50.618;10.642;2023-11-21T04:02:34;96054.06;;;15.89;29.08
64064;BME280;50314;50.618;10.642;2023-11-21T04:05:00;96054.25;;;15.87;29.12
64064;BME280;50314;50.618;10.642;2023-11-21T04:07:26;96049.06;;;15.86;29.23
64064;BME280;50314;50.618;10.642;2023-11-21T04:10:14;96052.06;;;15.83;29.39
64064;BME280;50314;50.618;10.642;2023-11-21T04:12:41;96062.22;;;15.87;29.23
64064;BME280;50314;50.618;10.642;2023-11-21T04:15:07;96065.69;;;15.88;29.40
64064;BME280;50314;50.618;10.642;2023-11-21T04:17:39;96066.66;;;15.87;29.24
64064;BME280;50314;50.618;10.642;2023-11-21T04:23:02;96065.50;;;15.89;29.20
64064;BME280;50314;50.618;10.642;2023-11-21T04:25:28;96073.47;;;15.89;29.23
64064;BME280;50314;50.618;10.642;2023-11-21T04:28:14;96075.81;;;15.84;29.18
64064;BME280;50314;50.618;10.642;2023-11-21T04:30:55;96071.97;;;15.79;29.36
64064;BME280;50314;50.618;10.642;2023-11-21T04:33:21;96074.13;;;15.83;29.16
64064;BME280;50314;50.618;10.642;2023-11-21T04:35:50;96078.47;;;15.84;29.18
64064;BME280;50314;50.618;10.642;2023-11-21T04:38:16;96073.78;;;15.86;29.12
64064;BME280;50314;50.618;10.642;2023-11-21T04:40:50;96084.75;;;15.83;29.10
64064;BME280;50314;50.618;10.642;2023-11-21T04:43:16;96089.59;;;15.88;29.13
64064;BME280;50314;50.618;10.642;2023-11-21T04:45:44;96089.72;;;15.86;29.37
64064;BME280;50314;50.618;10.642;2023-11-21T04:48:09;96093.22;;;15.87;29.22
64064;BME280;50314;50.618;10.642;2023-11-21T04:50:35;96098.53;;;15.87;29.09
64064;BME280;50314;50.618;10.642;2023-11-21T04:53:10;96087.41;;;15.83;28.94
64064;BME280;50314;50.618;10.642;2023-11-21T04:55:47;96096.19;;;15.84;29.11
64064;BME280;50314;50.618;10.642;2023-11-21T04:58:15;96093.72;;;15.82;29.25
64064;BME280;50314;50.618;10.642;2023-11-21T05:00:46;96099.00;;;15.82;29.14
64064;BME280;50314;50.618;10.642;2023-11-21T05:03:11;96101.34;;;15.85;29.02
64064;BME280;50314;50.618;10.642;2023-11-21T05:05:37;96105.00;;;15.84;29.13
64064;BME280;50314;50.618;10.642;2023-11-21T05:08:14;96104.50;;;15.81;29.38
64064;BME280;50314;50.618;10.642;2023-11-21T05:11:00;96103.31;;;15.83;29.12
64064;BME280;50314;50.618;10.642;2023-11-21T05:13:26;96109.63;;;15.82;29.07
64064;BME280;50314;50.618;10.642;2023-11-21T05:15:54;96107.97;;;15.81;29.01
64064;BME280;50314;50.618;10.642;2023-11-21T05:18:26;96109.94;;;15.79;29.26
64064;BME280;50314;50.618;10.642;2023-11-21T05:23:28;96106.16;;;15.82;29.23
64064;BME280;50314;50.618;10.642;2023-11-21T05:25:53;96109.81;;;15.81;29.10
64064;BME280;50314;50.618;10.642;2023-11-21T05:28:19;96118.59;;;15.81;29.16
64064;BME280;50314;50.618;10.642;2023-11-21T05:31:10;96116.59;;;15.75;29.37
64064;BME280;50314;50.618;10.642;2023-11-21T05:34:07;96123.72;;;15.74;29.43
64064;BME280;50314;50.618;10.642;2023-11-21T05:36:35;96119.56;;;15.72;29.41
64064;BME280;50314;50.618;10.642;2023-11-21T05:39:07;96128.66;;;15.69;29.35
64064;BME280;50314;50.618;10.642;2023-11-21T05:41:32;96129.50;;;15.70;29.45
64064;BME280;50314;50.618;10.642;2023-11-21T05:44:01;96128.97;;;15.66;29.41
64064;BME280;50314;50.618;10.642;2023-11-21T05:46:27;96133.31;;;15.67;29.41
64064;BME280;50314;50.618;10.642;2023-11-21T05:48:53;96141.09;;;15.69;29.50
64064;BME280;50314;50.618;10.642;2023-11-21T05:51:18;96139.28;;;15.69;29.28
64064;BME280;50314;50.618;10.642;2023-11-21T05:53:46;96137.78;;;15.67;29.51
64064;BME280;50314;50.618;10.642;2023-11-21T05:56:15;96141.41;;;15.66;29.32
64064;BME280;50314;50.618;10.642;2023-11-21T05:58:55;96144.25;;;15.64;29.51
64064;BME280;50314;50.618;10.642;2023-11-21T06:01:28;96143.94;;;15.67;29.26
64064;BME280;50314;50.618;10.642;2023-11-21T06:03:54;96151.03;;;15.67;29.26
64064;BME280;50314;50.618;10.642;2023-11-21T06:06:28;96157.03;;;15.69;29.14
64064;BME280;50314;50.618;10.642;2023-11-21T06:08:57;96156.91;;;15.70;29.33
64064;BME280;50314;50.618;10.642;2023-11-21T06:11:35;96167.31;;;15.64;29.57
64064;BME280;50314;50.618;10.642;2023-11-21T06:14:01;96168.47;;;15.69;29.39
64064;BME280;50314;50.618;10.642;2023-11-21T06:16:27;96175.63;;;15.69;29.22
64064;BME280;50314;50.618;10.642;2023-11-21T06:18:53;96181.09;;;15.67;29.63
64064;BME280;50314;50.618;10.642;2023-11-21T06:21:19;96180.25;;;15.67;29.30
64064;BME280;50314;50.618;10.642;2023-11-21T06:23:52;96185.91;;;15.64;29.27
64064;BME280;50314;50.618;10.642;2023-11-21T06:26:23;96192.34;;;15.61;29.80
64064;BME280;50314;50.618;10.642;2023-11-21T06:28:53;96190.03;;;15.66;29.57
64064;BME280;50314;50.618;10.642;2023-11-21T06:31:30;96190.84;;;15.67;29.56
64064;BME280;50314;50.618;10.642;2023-11-21T06:34:05;96198.81;;;15.67;29.36
64064;BME280;50314;50.618;10.642;2023-11-21T06:39:26;96197.84;;;15.68;29.32
64064;BME280;50314;50.618;10.642;2023-11-21T06:41:58;96205.97;;;15.66;29.56
64064;BME280;50314;50.618;10.642;2023-11-21T06:44:34;96202.03;;;15.70;29.44
64064;BME280;50314;50.618;10.642;2023-11-21T06:47:18;96203.16;;;15.68;29.40
64064;BME280;50314;50.618;10.642;2023-11-21T06:53:08;96213.25;;;15.64;29.70
64064;BME280;50314;50.618;10.642;2023-11-21T06:55:37;96218.09;;;15.69;29.72
64064;BME280;50314;50.618;10.642;2023-11-21T06:58:26;96229.19;;;15.64;29.57
64064;BME280;50314;50.618;10.642;2023-11-21T07:01:06;96220.91;;;15.67;29.82
64064;BME280;50314;50.618;10.642;2023-11-21T07:06:52;96231.06;;;15.72;29.64
64064;BME280;50314;50.618;10.642;2023-11-21T07:09:27;96236.06;;;15.75;29.64
64064;BME280;50314;50.618;10.642;2023-11-21T07:11:56;96238.53;;;15.77;29.79
64064;BME280;50314;50.618;10.642;2023-11-21T07:14:21;96231.41;;;15.77;29.87
64064;BME280;50314;50.618;10.642;2023-11-21T07:16:47;96228.91;;;15.76;29.85
64064;BME280;50314;50.618;10.642;2023-11-21T07:19:13;96233.41;;;15.75;29.62
64064;BME280;50314;50.618;10.642;2023-11-21T07:21:39;96238.72;;;15.75;29.64
64064;BME280;50314;50.618;10.642;2023-11-21T07:24:05;96248.50;;;15.74;29.70
64064;BME280;50314;50.618;10.642;2023-11-21T07:26:32;96252.00;;;15.75;29.95
64064;BME280;50314;50.618;10.642;2023-11-21T07:29:04;96255.63;;;15.74;29.76
64064;BME280;50314;50.618;10.642;2023-11-21T07:31:30;96251.81;;;15.77;29.55
64064;BME280;50314;50.618;10.642;2023-11-21T07:33:58;96259.78;;;15.77;29.79
64064;BME280;50314;50.618;10.642;2023-11-21T07:36:38;96263.94;;;15.79;29.69
64064;BME280;50314;50.618;10.642;2023-11-21T07:39:13;96261.00;;;15.82;29.84
64064;BME280;50314;50.618;10.642;2023-11-21T07:41:41;96268.66;;;15.85;29.23
64064;BME280;50314;50.618;10.642;2023-11-21T07:44:16;96268.66;;;15.85;29.68
64064;BME280;50314;50.618;10.642;2023-11-21T07:46:43;96276.59;;;15.85;29.56
64064;BME280;50314;50.618;10.642;2023-11-21T07:49:09;96274.94;;;15.84;29.84
64064;BME280;50314;50.618;10.642;2023-11-21T07:51:35;96281.22;;;15.83;29.65
64064;BME280;50314;50.618;10.642;2023-11-21T07:54:00;96266.31;;;15.82;29.64
64064;BME280;50314;50.618;10.642;2023-11-21T07:56:26;96275.91;;;15.83;29.86
64064;BME280;50314;50.618;10.642;2023-11-21T07:58:51;96278.44;;;15.85;29.59
64064;BME280;50314;50.618;10.642;2023-11-21T08:01:17;96285.56;;;15.84;29.79
64064;BME280;50314;50.618;10.642;2023-11-21T08:03:43;96287.06;;;15.87;29.45
64064;BME280;50314;50.618;10.642;2023-11-21T08:06:09;96293.06;;;15.89;29.71
64064;BME280;50314;50.618;10.642;2023-11-21T08:08:35;96289.25;;;15.91;29.56
64064;BME280;50314;50.618;10.642;2023-11-21T08:11:07;96293.56;;;15.92;29.79
64064;BME280;50314;50.618;10.642;2023-11-21T08:13:33;96304.72;;;15.96;29.39
64064;BME280;50314;50.618;10.642;2023-11-21T08:16:01;96297.59;;;15.96;29.58
64064;BME280;50314;50.618;10.642;2023-11-21T08:18:29;96301.75;;;15.99;29.52
64064;BME280;50314;50.618;10.642;2023-11-21T08:20:57;96304.41;;;15.99;29.63
64064;BME280;50314;50.618;10.642;2023-11-21T08:23:23;96300.63;;;16.02;29.48
64064;BME280;50314;50.618;10.642;2023-11-21T08:25:54;96304.94;;;16.03;29.58
64064;BME280;50314;50.618;10.642;2023-11-21T08:28:20;96303.63;;;16.07;29.46
64064;BME280;50314;50.618;10.642;2023-11-21T08:30:54;96301.97;;;16.06;29.54
64064;BME280;50314;50.618;10.642;2023-11-21T08:33:20;96304.31;;;16.09;29.39
64064;BME280;50314;50.618;10.642;2023-11-21T08:35:45;96307.63;;;16.11;29.28
64064;BME280;50314;50.618;10.642;2023-11-21T08:38:11;96308.50;;;16.11;29.56
64064;BME280;50314;50.618;10.642;2023-11-21T08:40:37;96313.94;;;16.10;29.79
64064;BME280;50314;50.618;10.642;2023-11-21T08:43:03;96314.75;;;16.10;29.29
64064;BME280;50314;50.618;10.642;2023-11-21T08:45:30;96320.06;;;16.10;29.39
64064;BME280;50314;50.618;10.642;2023-11-21T08:47:56;96329.88;;;16.10;28.97
64064;BME280;50314;50.618;10.642;2023-11-21T08:50:21;96333.53;;;16.09;29.14
64064;BME280;50314;50.618;10.642;2023-11-21T08:52:48;96331.69;;;16.09;29.08
64064;BME280;50314;50.618;10.642;2023-11-21T08:55:14;96328.22;;;16.09;28.61
64064;BME280;50314;50.618;10.642;2023-11-21T08:57:41;96325.03;;;16.05;27.61
64064;BME280;50314;50.618;10.642;2023-11-21T09:00:09;96325.88;;;16.06;27.21
64064;BME280;50314;50.618;10.642;2023-11-21T09:02:38;96334.84;;;16.05;26.92
64064;BME280;50314;50.618;10.642;2023-11-21T09:05:07;96332.78;;;15.98;26.17
64064;BME280;50314;50.618;10.642;2023-11-21T09:07:35;96334.09;;;15.94;26.44
64064;BME280;50314;50.618;10.642;2023-11-21T09:10:01;96337.22;;;15.90;26.35
64064;BME280;50314;50.618;10.642;2023-11-21T09:12:27;96337.69;;;15.85;26.62
64064;BME280;50314;50.618;10.642;2023-11-21T09:14:53;96344.66;;;15.86;26.70
64064;BME280;50314;50.618;10.642;2023-11-21T09:17:19;96339.34;;;15.86;26.93
64064;BME280;50314;50.618;10.642;2023-11-21T09:19:44;96347.00;;;15.89;26.99
64064;BME280;50314;50.618;10.642;2023-11-21T09:22:12;96353.00;;;15.91;27.19
64064;BME280;50314;50.618;10.642;2023-11-21T09:24:38;96351.00;;;15.93;27.05
64064;BME280;50314;50.618;10.642;2023-11-21T09:27:03;96354.34;;;15.95;27.28
64064;BME280;50314;50.618;10.642;2023-11-21T09:29:30;96362.16;;;15.97;27.05
64064;BME280;50314;50.618;10.642;2023-11-21T09:31:57;96363.84;;;15.98;27.14
64064;BME280;50314;50.618;10.642;2023-11-21T09:34:25;96376.66;;;16.03;27.20
64064;BME280;50314;50.618;10.642;2023-11-21T09:36:51;96372.03;;;16.05;27.22
64064;BME280;50314;50.618;10.642;2023-11-21T09:39:17;96370.84;;;16.07;27.23
64064;BME280;50314;50.618;10.642;2023-11-21T09:41:52;96365.72;;;16.06;27.04
64064;BME280;50314;50.618;10.642;2023-11-21T09:44:34;96367.38;;;16.07;27.21
64064;BME280;50314;50.618;10.642;2023-11-21T09:47:02;96370.13;;;16.15;27.33
64064;BME280;50314;50.618;10.642;2023-11-21T09:49:28;96368.81;;;16.19;27.22
64064;BME280;50314;50.618;10.642;2023-11-21T09:51:58;96370.34;;;16.22;27.19
64064;BME280;50314;50.618;10.642;2023-11-21T09:54:29;96372.19;;;16.29;27.38
64064;BME280;50314;50.618;10.642;2023-11-21T09:56:57;96369.38;;;16.31;27.15
64064;BME280;50314;50.618;10.642;2023-11-21T09:59:23;96361.78;;;16.36;27.25
64064;BME280;50314;50.618;10.642;2023-11-21T10:01:49;96364.94;;;16.39;27.13
64064;BME280;50314;50.618;10.642;2023-11-21T10:04:15;96369.13;;;16.42;26.90
64064;BME280;50314;50.618;10.642;2023-11-21T10:06:43;96376.09;;;16.43;27.30
64064;BME280;50314;50.618;10.642;2023-11-21T10:09:12;96375.09;;;16.44;27.29
64064;BME280;50314;50.618;10.642;2023-11-21T10:11:42;96372.63;;;16.42;26.92
64064;BME280;50314;50.618;10.642;2023-11-21T10:14:12;96375.28;;;16.42;26.95
64064;BME280;50314;50.618;10.642;2023-11-21T10:16:38;96375.28;;;16.42;27.10
64064;BME280;50314;50.618;10.642;2023-11-21T10:19:05;96376.28;;;16.41;27.09
64064;BME280;50314;50.618;10.642;2023-11-21T10:21:33;96374.44;;;16.42;26.88
64064;BME280;50314;50.618;10.642;2023-11-21T10:23:59;96370.97;;;16.41;27.17
64064;BME280;50314;50.618;10.642;2023-11-21T10:26:26;96368.28;;;16.41;26.97
64064;BME280;50314;50.618;10.642;2023-11-21T10:28:59;96375.72;;;16.38;26.83
64064;BME280;50314;50.618;10.642;2023-11-21T10:31:30;96369.44;;;16.39;27.04
64064;BME280;50314;50.618;10.642;2023-11-21T10:34:17;96375.22;;;16.34;27.06
64064;BME280;50314;50.618;10.642;2023-11-21T10:36:44;96377.41;;;16.39;27.02
64064;BME280;50314;50.618;10.642;2023-11-21T10:39:17;96370.56;;;16.36;26.89
64064;BME280;50314;50.618;10.642;2023-11-21T10:41:52;96384.88;;;16.35;26.88
64064;BME280;50314;50.618;10.642;2023-11-21T10:44:18;96386.22;;;16.39;26.87
64064;BME280;50314;50.618;10.642;2023-11-21T10:46:50;96382.72;;;16.39;27.26
64064;BME280;50314;50.618;10.642;2023-11-21T10:49:19;96384.50;;;16.30;27.14
64064;BME280;50314;50.618;10.642;2023-11-21T10:51:45;96381.22;;;16.36;27.12
64064;BME280;50314;50.618;10.642;2023-11-21T10:54:10;96386.34;;;16.38;27.08
64064;BME280;50314;50.618;10.642;2023-11-21T10:56:39;96387.22;;;16.38;27.24
64064;BME280;50314;50.618;10.642;2023-11-21T10:59:09;96387.22;;;16.38;27.03
64064;BME280;50314;50.618;10.642;2023-11-21T11:01:42;96393.03;;;16.42;27.25
64064;BME280;50314;50.618;10.642;2023-11-21T11:04:09;96391.22;;;16.42;27.33
64064;BME280;50314;50.618;10.642;2023-11-21T11:06:43;96388.38;;;16.44;26.96
64064;BME280;50314;50.618;10.642;2023-11-21T11:09:14;96395.41;;;16.45;27.03
64064;BME280;50314;50.618;10.642;2023-11-21T11:11:42;96397.06;;;16.46;26.93
64064;BME280;50314;50.618;10.642;2023-11-21T11:14:12;96396.06;;;16.47;26.86
64064;BME280;50314;50.618;10.642;2023-11-21T11:16:41;96394.41;;;16.46;26.85
64064;BME280;50314;50.618;10.642;2023-11-21T11:19:09;96394.22;;;16.48;26.90
64064;BME280;50314;50.618;10.642;2023-11-21T11:21:59;96399.19;;;16.42;27.12
64064;BME280;50314;50.618;10.642;2023-11-21T11:35:04;96400.50;;;16.38;27.19
64064;BME280;50314;50.618;10.642;2023-11-21T11:37:33;96398.50;;;16.40;27.23
64064;BME280;50314;50.618;10.642;2023-11-21T11:39:59;96406.47;;;16.40;27.12
64064;BME280;50314;50.618;10.642;2023-11-21T11:42:26;96406.47;;;16.40;27.18
64064;BME280;50314;50.618;10.642;2023-11-21T11:44:52;96407.16;;;16.42;27.21
64064;BME280;50314;50.618;10.642;2023-11-21T11:47:27;96409.13;;;16.40;27.09
64064;BME280;50314;50.618;10.642;2023-11-21T11:50:11;96405.66;;;16.40;27.10
64064;BME280;50314;50.618;10.642;2023-11-21T11:52:49;96412.09;;;16.37;27.21
64064;BME280;50314;50.618;10.642;2023-11-21T11:55:21;96410.97;;;16.40;27.30
64064;BME280;50314;50.618;10.642;2023-11-21T11:57:51;96413.59;;;16.32;27.39
64064;BME280;50314;50.618;10.642;2023-11-21T12:00:19;96414.63;;;16.39;27.13
64064;BME280;50314;50.618;10.642;2023-11-21T12:02:52;96412.09;;;16.37;27.02
64064;BME280;50314;50.618;10.642;2023-11-21T12:05:20;96412.09;;;16.37;27.03
64064;BME280;50314;50.618;10.642;2023-11-21T12:07:54;96423.03;;;16.34;27.12
64064;BME280;50314;50.618;10.642;2023-11-21T12:10:27;96420.88;;;16.30;27.34
64064;BME280;50314;50.618;10.642;2023-11-21T12:13:01;96420.72;;;16.31;27.16
64064;BME280;50314;50.618;10.642;2023-11-21T12:15:27;96424.72;;;16.35;27.16
64064;BME280;50314;50.618;10.642;2023-11-21T12:17:57;96424.72;;;16.35;27.15
64064;BME280;50314;50.618;10.642;2023-11-21T12:20:24;96426.34;;;16.28;27.23
64064;BME280;50314;50.618;10.642;2023-11-21T12:22:55;96425.03;;;16.32;27.18
64064;BME280;50314;50.618;10.642;2023-11-21T12:25:26;96428.34;;;16.34;27.06
64064;BME280;50314;50.618;10.642;2023-11-21T12:27:57;96437.03;;;16.36;27.14
64064;BME280;50314;50.618;10.642;2023-11-21T12:30:25;96436.34;;;16.34;27.20
64064;BME280;50314;50.618;10.642;2023-11-21T12:32:54;96446.00;;;16.35;27.05
64064;BME280;50314;50.618;10.642;2023-11-21T12:35:31;96446.31;;;16.32;26.89
64064;BME280;50314;50.618;10.642;2023-11-21T12:37:59;96447.81;;;16.35;27.14
64064;BME280;50314;50.618;10.642;2023-11-21T12:40:25;96453.97;;;16.35;27.13
64064;BME280;50314;50.618;10.642;2023-11-21T12:42:58;96452.63;;;16.31;27.15
64064;BME280;50314;50.618;10.642;2023-11-21T12:45:25;96447.97;;;16.33;27.13
64064;BME280;50314;50.618;10.642;2023-11-21T12:48:03;96441.59;;;16.26;26.71
64064;BME280;50314;50.618;10.642;2023-11-21T12:50:34;96443.13;;;16.29;26.82
64064;BME280;50314;50.618;10.642;2023-11-21T12:53:06;96445.78;;;16.29;26.86
64064;BME280;50314;50.618;10.642;2023-11-21T12:55:34;96443.25;;;16.27;26.99
64064;BME280;50314;50.618;10.642;2023-11-21T12:58:05;96444.44;;;16.25;26.84
64064;BME280;50314;50.618;10.642;2023-11-21T13:00:39;96441.91;;;16.23;26.80
64064;BME280;50314;50.618;10.642;2023-11-21T13:03:09;96435.59;;;16.24;27.04
64064;BME280;50314;50.618;10.642;2023-11-21T13:05:38;96441.06;;;16.23;27.11
64064;BME280;50314;50.618;10.642;2023-11-21T13:08:04;96441.03;;;16.14;26.99
64064;BME280;50314;50.618;10.642;2023-11-21T13:10:35;96446.69;;;16.19;27.19
64064;BME280;50314;50.618;10.642;2023-11-21T13:13:06;96448.66;;;16.17;27.12
64064;BME280;50314;50.618;10.642;2023-11-21T13:15:39;96458.47;;;16.17;27.04
64064;BME280;50314;50.618;10.642;2023-11-21T13:18:06;96453.84;;;16.19;27.00
64064;BME280;50314;50.618;10.642;2023-11-21T13:20:32;96457.34;;;16.19;27.13
64064;BME280;50314;50.618;10.642;2023-11-21T13:22:58;96450.34;;;16.18;27.24
64064;BME280;50314;50.618;10.642;2023-11-21T13:25:26;96456.50;;;16.19;27.07
64064;BME280;50314;50.618;10.642;2023-11-21T13:27:56;96462.13;;;16.16;27.15
64064;BME280;50314;50.618;10.642;2023-11-21T13:30:22;96467.25;;;16.17;27.28
64064;BME280;50314;50.618;10.642;2023-11-21T13:33:02;96466.59;;;16.15;27.16
64064;BME280;50314;50.618;10.642;2023-11-21T13:35:32;96460.28;;;16.16;27.22
64064;BME280;50314;50.618;10.642;2023-11-21T13:38:04;96462.41;;;16.13;27.54